Flight Track Log - Related Links

Times and Time Zones

All times are in EDT time to prevent confusion due to time zone crossing. See the TMC875 flight status page for this flight to view local times or setup timezone preferences in your user account.

Time Position Orientation Groundspeed Altitude Reporting Facility
EDT Latitude Longitude Course Direction KTS MPH feet Rate Location/Type
Wed 03:50:19 PM 30.1200 -97.5467 90° East 264 304 4,000  Level Houston Center
Wed 03:51:21 PM 30.1453 -97.4656 70° East 274 315 4,500 1,500 Climbing Houston Center
Wed 03:52:23 PM 30.2047 -97.3942 46° Northeast 303 349 7,100 2,710 Climbing Houston Center
Wed 03:53:25 PM 30.2681 -97.3158 47° Northeast 326 375 10,100 2,903 Climbing Houston Center
Wed 03:54:00 PM 30.3496 -97.0645 101° East  Level FlightAware Approximate
Wed 03:54:27 PM 30.3317 -97.2386 46° Northeast 329 379 13,100  Level Houston Center
Wed 03:55:00 PM 30.3333 -96.9471 90° East  Level FlightAware Approximate
Wed 03:55:29 PM 30.3567 -97.1436 73° East 316 364 15,800  Level Houston Center
Wed 03:56:31 PM 30.3492 -97.0239 94° East 320 368 18,400 2,208 Climbing Houston Center
Wed 03:57:34 PM 30.3431 -96.9097 94° East 346 398 20,400 1,968 Climbing Houston Center
Wed 03:58:36 PM 30.3361 -96.7931 94° East 359 413 22,500 1,935 Climbing Houston Center
Wed 03:59:38 PM 30.3281 -96.6692 94° East 378 435 24,400 1,694 Climbing Houston Center
Wed 04:00:40 PM 30.3200 -96.5381 94° East 401 461 26,000 1,403 Climbing Houston Center
Wed 04:01:42 PM 30.3106 -96.3983 94° East 429 494 27,300 1,403 Climbing Houston Center
Wed 04:02:44 PM 30.2997 -96.2283 94° East 449 517 28,900 1,355 Climbing Houston Center
Wed 04:03:46 PM 30.2903 -96.0781 94° East 463 533 30,100 1,210 Climbing Houston Center
Wed 04:04:48 PM 30.2961 -95.9281 87° East 472 543 31,400 1,258 Climbing Houston Center
Wed 04:05:50 PM 30.3061 -95.7725 86° East 482 555 32,700 768 Climbing Houston Center
Wed 04:06:53 PM 30.3136 -95.6136 87° East 492 566 33,000 144 Climbing Houston Center
Wed 04:07:55 PM 30.3242 -95.4494 86° East 508 585 33,000  Level Houston Center
Wed 04:08:57 PM 30.3336 -95.2833 86° East 515 593 33,000  Level Houston Center
Wed 04:09:59 PM 30.3439 -95.0839 87° East 518 596 33,000  Level Houston Center
Wed 04:11:01 PM 30.3517 -94.9183 87° East 515 593 33,000  Level Houston Center
Wed 04:12:03 PM 30.3611 -94.7547 86° East 509 586 33,000  Level Houston Center
Wed 04:13:05 PM 30.3706 -94.5914 86° East 507 583 33,000  Level Houston Center
Wed 04:14:07 PM 30.3750 -94.4228 88° East 514 592 33,000  Level Houston Center
Wed 04:15:10 PM 30.3842 -94.2258 87° East 514 592 33,000  Level Houston Center
Wed 04:16:12 PM 30.3914 -94.0603 87° East 516 594 33,000  Level Houston Center
Wed 04:17:14 PM 30.3983 -93.8950 87° East 516 594 33,000 -194 Level Houston Center
Wed 04:18:16 PM 30.4058 -93.7311 87° East 514 592 32,600 -968 Descending Houston Center
Wed 04:19:18 PM 30.4142 -93.5467 87° East 513 590 31,000 -1,452 Descending Houston Center
Wed 04:20:20 PM 30.4192 -93.3867 88° East 501 577 29,600 -1,355 Descending Houston Center
Wed 04:21:22 PM 30.4253 -93.2319 87° East 487 560 28,200 -1,355 Descending Houston Center
Wed 04:22:24 PM 30.4314 -93.0817 87° East 469 540 26,800 -1,392 Descending Houston Center
Wed 04:23:27 PM 30.4369 -92.9364 87° East 456 525 25,300 -1,536 Descending Houston Center
Wed 04:24:29 PM 30.4417 -92.7683 88° East 439 505 23,600 -1,500 Descending Houston Center
Wed 04:25:31 PM 30.4464 -92.6314 88° East 432 497 22,200 -1,403 Descending Houston Center
Wed 04:26:33 PM 30.4511 -92.4992 88° East 417 480 20,700 -1,403 Descending Houston Center
Wed 04:27:35 PM 30.4550 -92.3678 88° East 411 473 19,300 -1,355 Descending Houston Center
Wed 04:28:37 PM 30.4603 -92.2403 87° East 402 463 17,900 -1,500 Descending Houston Center
Wed 04:29:39 PM 30.4647 -92.0914 88° East 389 448 16,200 -1,536 Descending Houston Center
Wed 04:30:42 PM 30.4689 -91.9694 88° East 383 441 14,700 -1,680 Descending Houston Center
Wed 04:31:44 PM 30.4725 -91.8561 88° East 360 414 12,700 -1,790 Descending Houston Center
Wed 04:32:46 PM 30.4747 -91.7564 88° East 325 374 11,000 -823 Descending Houston Center
Wed 04:33:48 PM 30.4753 -91.6617 90° East 304 350 11,000 -1,306 Level Houston Center
Wed 04:34:50 PM 30.4806 -91.5456 87° East 301 346 8,300 -1,452 Descending Houston Center
Wed 04:35:52 PM 30.4817 -91.4583 89° East 282 325 8,000 -145 Descending Houston Center
Wed 04:36:54 PM 30.5475 -91.4158 29° Northeast 295 339 8,000 -145 Level Houston Center
Wed 04:37:56 PM 30.6275 -91.3836 19° North 297 342 7,700 -1,200 Descending Houston Center
Wed 04:38:59 PM 30.6931 -91.3244 38° Northeast 301 346 5,500 -1,680 Descending Houston Center
Wed 04:40:01 PM 30.7633 -91.2636 37° Northeast 293 337 4,200 -1,258 Descending Houston Center
Wed 04:42:00 PM 30.5726 -91.1694 157° South  Level Estimated
Wed 04:49:00 PM 30.5329 -91.1499 157° South  Level Estimated
Wed 04:50:00 PM 30.5329 -91.1499 148° Southeast  Level Estimated
Wed 04:51:00 PM 30.5329 -91.1499 148° Southeast  Level Estimated
Wed 04:52:00 PM 30.5329 -91.1499 148° Southeast  Level Estimated

Login

Don't have an account? Register now (free) for customized features, flight alerts, and more!